Time;durP1;ratioP1;P1;durP2;ratioP2;P2;SDS_P1;SDS_P2;PMS_P1;PMS_P2;Temp;Humidity;BMP_temperature;BMP_pressure;BME280_temperature;BME280_humidity;BME280_pressure;Samples;Min_cycle;Max_cycle;Signal;HPM_P1;HPM_P2
2022/11/23 00:00:59;;;;;;;11.55;8.07;;;18.50;75.20;;;19.21;41.05;97626.44;4994956;28;20493;-75
2022/11/23 00:03:47;;;;;;;10.40;6.95;;;18.50;75.20;;;19.20;41.08;97625.66;5039700;28;20040;-74
2022/11/23 00:06:13;;;;;;;11.13;8.00;;;18.50;75.10;;;19.20;41.01;97625.66;5025709;28;20501;-74
2022/11/23 00:08:39;;;;;;;9.48;6.57;;;18.50;75.10;;;19.20;41.13;97614.66;5009559;28;20067;-75
2022/11/23 00:11:06;;;;;;;10.70;8.30;;;18.40;75.20;;;19.17;41.26;97617.34;5024916;28;20588;-75
2022/11/23 00:13:34;;;;;;;12.68;8.32;;;18.50;75.30;;;19.21;40.96;97626.44;5025638;28;20050;-74
2022/11/23 00:16:07;;;;;;;8.80;7.38;;;18.50;75.10;;;19.21;40.92;97615.44;5028405;28;20033;-74
2022/11/23 00:18:32;;;;;;;9.60;7.43;;;18.40;75.00;;;19.17;41.15;97609.88;5023444;28;20091;-74
2022/11/23 00:20:59;;;;;;;12.60;8.43;;;18.40;75.20;;;19.17;41.08;97609.88;5011684;28;20045;-74
2022/11/23 00:23:25;;;;;;;11.15;7.85;;;18.50;75.10;;;19.13;41.26;97616.47;5012208;28;20091;-74
2022/11/23 00:25:51;;;;;;;12.38;7.85;;;18.50;75.30;;;19.13;41.08;97614.50;5024280;28;20042;-75
2022/11/23 00:28:18;;;;;;;11.30;7.22;;;18.40;75.10;;;19.14;41.21;97621.59;5012274;28;20078;-75
2022/11/23 00:30:49;;;;;;;14.05;7.72;;;18.40;75.20;;;19.14;41.07;97612.56;5012492;28;20421;-74
2022/11/23 00:33:16;;;;;;;8.90;6.80;;;18.40;75.00;;;19.12;41.22;97617.63;5013087;28;20038;-75
2022/11/23 00:35:42;;;;;;;11.45;8.27;;;18.40;75.00;;;19.14;40.90;97621.59;5029172;28;20037;-75
2022/11/23 00:38:08;;;;;;;11.63;7.97;;;18.40;74.90;;;19.08;41.33;97628.53;5021497;28;20042;-74
2022/11/23 00:40:34;;;;;;;8.98;7.50;;;18.50;75.20;;;19.09;41.37;97628.19;5028497;28;20763;-74
2022/11/23 00:43:00;;;;;;;12.45;7.78;;;18.40;75.00;;;19.12;41.24;97623.91;5035954;28;20037;-74
2022/11/23 00:45:27;;;;;;;7.95;6.93;;;18.50;75.00;;;19.14;40.91;97623.56;5014334;28;20041;-75
2022/11/23 00:47:53;;;;;;;11.30;7.47;;;18.50;75.00;;;19.13;41.09;97619.22;5024814;28;20380;-75
2022/11/23 00:50:19;;;;;;;12.73;8.25;;;18.40;74.90;;;19.10;40.93;97628.97;5011632;28;20046;-75
2022/11/23 00:52:45;;;;;;;12.43;8.68;;;18.40;74.80;;;19.12;40.97;97631.38;5029485;28;20108;-75
2022/11/23 00:55:11;;;;;;;12.10;8.43;;;18.40;75.10;;;19.09;41.27;97636.41;5010457;28;20091;-75
2022/11/23 00:57:37;;;;;;;10.20;7.82;;;18.40;75.20;;;19.06;41.27;97636.34;5032802;28;20045;-75
2022/11/23 01:00:06;;;;;;;9.23;6.65;;;18.40;75.30;;;19.09;41.21;97624.63;5022234;28;20383;-75
2022/11/23 01:02:35;;;;;;;9.10;7.47;;;18.40;75.20;;;19.06;41.22;97623.41;5025827;28;20469;-75
2022/11/23 01:05:03;;;;;;;12.25;7.60;;;18.40;75.00;;;19.06;40.91;97628.09;5007386;28;20061;-74
2022/11/23 01:07:32;;;;;;;9.52;7.38;;;18.40;74.80;;;19.07;41.20;97621.44;5012015;28;20049;-74
2022/11/23 01:09:58;;;;;;;12.02;8.00;;;18.40;75.00;;;19.04;41.15;97616.66;5028532;28;20385;-74
2022/11/23 01:12:24;;;;;;;11.82;7.25;;;18.40;75.10;;;19.03;41.16;97620.56;5027622;28;20034;-74
2022/11/23 01:14:53;;;;;;;9.95;7.45;;;18.40;75.40;;;19.04;41.20;97619.41;5027694;28;20052;-74
2022/11/23 01:17:18;;;;;;;8.55;7.18;;;18.40;75.30;;;19.04;41.12;97622.16;5010724;28;20053;-75
2022/11/23 01:19:45;;;;;;;11.38;7.55;;;18.40;75.10;;;19.01;41.16;97620.94;5026068;28;20033;-75
2022/11/23 01:22:11;;;;;;;10.32;6.82;;;18.40;74.90;;;19.04;41.22;97616.66;5012102;28;20038;-75
2022/11/23 01:24:37;;;;;;;9.25;6.97;;;18.40;75.00;;;19.00;40.92;97618.53;5012634;28;20041;-75
2022/11/23 01:27:03;;;;;;;9.88;6.88;;;18.40;74.80;;;18.97;41.23;97609.06;5010182;28;20108;-75
2022/11/23 01:29:29;;;;;;;10.68;8.63;;;18.40;75.90;;;19.02;41.21;97608.78;5014838;28;20041;-74
2022/11/23 01:31:55;;;;;;;10.07;6.57;;;18.30;75.10;;;18.98;41.24;97609.84;5025726;28;20081;-75
2022/11/23 01:34:21;;;;;;;10.27;7.40;;;18.30;75.10;;;18.98;41.12;97612.59;5045007;28;20041;-75
2022/11/23 01:36:47;;;;;;;11.35;7.20;;;18.30;74.90;;;18.97;41.11;97606.31;5011915;28;20053;-75
2022/11/23 01:39:14;;;;;;;12.43;9.00;;;18.30;75.00;;;18.97;41.17;97611.78;4995652;28;20044;-75
2022/11/23 01:41:41;;;;;;;11.85;7.28;;;18.30;74.90;;;18.95;40.93;97605.84;5026108;28;20488;-75
2022/11/23 01:44:31;;;;;;;8.27;6.82;;;18.30;75.00;;;18.96;41.19;97612.97;5026876;28;20134;-75
2022/11/23 01:46:59;;;;;;;11.77;7.85;;;18.30;75.00;;;18.95;41.58;97611.34;4998805;28;20076;-75
2022/11/23 01:49:27;;;;;;;9.55;7.20;;;18.30;75.20;;;18.98;41.34;97607.09;5007982;28;20095;-75
2022/11/23 01:51:55;;;;;;;10.05;7.63;;;18.30;75.10;;;18.94;41.13;97614.47;5024224;28;20092;-75
2022/11/23 01:54:48;;;;;;;11.23;7.70;;;18.20;75.00;;;18.92;41.12;97619.53;4995225;28;20042;-75
2022/11/23 01:57:29;;;;;;;10.27;6.97;;;18.30;74.90;;;18.94;41.20;97619.97;5016476;28;20037;-75
2022/11/23 01:59:56;;;;;;;12.55;7.80;;;18.30;74.90;;;18.92;41.43;97620.31;5011254;28;20073;-75
2022/11/23 02:02:22;;;;;;;8.32;6.68;;;18.30;75.20;;;18.90;41.37;97625.38;5025382;28;20045;-74
2022/11/23 02:04:51;;;;;;;12.73;8.15;;;18.30;75.20;;;18.92;40.90;97622.28;5010525;28;20437;-74
2022/11/23 02:07:16;;;;;;;10.15;6.88;;;18.30;74.90;;;18.92;41.17;97622.28;5008935;28;20045;-75
2022/11/23 02:09:43;;;;;;;10.55;7.38;;;18.30;74.90;;;18.96;40.80;97620.41;5028061;28;20041;-75
2022/11/23 02:12:12;;;;;;;9.95;6.95;;;18.20;74.70;;;18.92;40.99;97623.06;5011031;28;20485;-74
2022/11/23 02:14:40;;;;;;;10.30;7.68;;;18.30;74.80;;;18.92;41.17;97630.53;5031006;28;20041;-74
2022/11/23 02:17:06;;;;;;;12.45;7.70;;;18.30;74.90;;;18.88;41.20;97622.22;5026741;28;20093;-74
2022/11/23 02:20:01;;;;;;;8.82;6.72;;;18.20;75.00;;;18.91;41.30;97626.19;5033133;28;20045;-74
2022/11/23 02:22:57;;;;;;;8.95;6.65;;;18.30;75.10;;;18.86;41.16;97617.06;5027412;28;20682;-74
2022/11/23 02:25:42;;;;;;;12.73;7.32;;;18.30;74.70;;;18.86;41.18;97616.25;5028611;28;20374;-74
2022/11/23 02:28:10;;;;;;;8.63;6.72;;;18.30;74.50;;;18.82;41.18;97621.66;5028277;28;20046;-75
2022/11/23 02:30:36;;;;;;;11.88;7.18;;;18.30;74.40;;;18.88;41.30;97616.72;5011002;28;20049;-74
2022/11/23 02:33:05;;;;;;;10.38;6.35;;;18.30;74.80;;;18.87;41.43;97621.38;5025270;28;20048;-75
2022/11/23 02:35:32;;;;;;;9.35;6.65;;;18.40;75.00;;;18.88;41.31;97619.47;5028673;28;20037;-74
2022/11/23 02:38:00;;;;;;;10.93;7.70;;;18.40;74.90;;;18.84;41.24;97611.13;5014742;28;20095;-74
2022/11/23 02:40:32;;;;;;;10.98;7.68;;;18.30;74.80;;;18.84;41.19;97611.13;5015255;28;20103;-75
2022/11/23 02:42:58;;;;;;;;;;;18.30;74.60;;;18.83;41.01;97609.53;5014181;28;20037;-74
2022/11/23 02:45:52;;;;;;;9.60;6.90;;;18.30;74.50;;;18.82;41.26;97615.38;5023848;28;19921;-74
2022/11/23 02:48:18;;;;;;;8.93;6.28;;;18.30;74.50;;;18.83;41.41;97611.50;5018355;28;20083;-74
2022/11/23 02:50:45;;;;;;;9.45;7.15;;;18.30;74.90;;;18.83;41.47;97606.00;5010738;28;20447;-74
2022/11/23 02:53:11;;;;;;;9.82;6.93;;;18.30;74.80;;;18.84;41.17;97608.38;5015437;28;20409;-74
2022/11/23 02:55:38;;;;;;;9.98;6.32;;;18.30;74.80;;;18.84;41.25;97607.56;5013776;28;20037;-74
2022/11/23 02:58:04;;;;;;;10.25;6.88;;;18.30;74.70;;;18.85;40.90;97607.22;5013855;28;20044;-75
2022/11/23 03:00:31;;;;;;;10.30;7.20;;;18.20;74.40;;;18.82;41.01;97605.19;5031936;28;20041;-75
2022/11/23 03:02:58;;;;;;;8.95;7.00;;;18.20;74.40;;;18.80;41.22;97601.19;5031166;28;20045;-75
2022/11/23 03:05:24;;;;;;;10.93;6.75;;;18.20;74.70;;;18.83;41.40;97606.00;4999583;28;20113;-75
2022/11/23 03:07:50;;;;;;;11.27;7.28;;;18.20;75.00;;;18.80;41.50;97607.50;5012288;28;20053;-75
2022/11/23 03:10:17;;;;;;;7.68;6.80;;;18.30;75.00;;;18.82;41.13;97609.88;5028722;28;20037;-74
2022/11/23 03:12:43;;;;;;;8.95;6.70;;;18.20;74.60;;;18.80;41.16;97610.25;5014054;28;20048;-75
2022/11/23 03:15:10;;;;;;;10.30;6.80;;;18.30;74.50;;;18.77;41.25;97610.94;5013549;28;20092;-75
2022/11/23 03:17:35;;;;;;;9.63;6.28;;;18.20;74.50;;;18.79;41.22;97605.09;5013817;28;20803;-75
2022/11/23 03:20:02;;;;;;;11.68;7.70;;;18.20;74.60;;;18.80;41.32;97601.19;5010506;28;20045;-75
2022/11/23 03:22:28;;;;;;;12.93;6.82;;;18.20;74.80;;;18.75;41.33;97607.78;4997719;28;20099;-75
2022/11/23 03:24:56;;;;;;;8.98;6.75;;;18.20;74.90;;;18.76;41.10;97595.63;5031878;28;20057;-75
2022/11/23 03:27:22;;;;;;;8.13;6.22;;;18.20;74.70;;;18.77;41.25;97607.41;5017906;28;20740;-75
2022/11/23 03:29:48;;;;;;;10.98;7.15;;;18.20;74.50;;;18.79;40.93;97600.41;4997679;28;20107;-75
2022/11/23 03:32:14;;;;;;;9.13;7.43;;;18.20;74.30;;;18.73;40.72;97595.53;5031270;28;20045;-75
2022/11/23 03:34:40;;;;;;;7.97;6.60;;;18.20;74.50;;;18.79;41.28;97600.41;5015758;28;20412;-75
2022/11/23 03:37:06;;;;;;;12.05;6.20;;;18.10;74.90;;;18.73;41.36;97596.31;5010551;28;20046;-74
2022/11/23 03:39:33;;;;;;;12.18;7.57;;;18.20;75.10;;;18.73;41.49;97590.03;5028428;28;20033;-75
2022/11/23 03:41:58;;;;;;;16.27;7.68;;;18.20;75.10;;;18.74;41.16;97597.09;5027313;28;20095;-75
2022/11/23 03:44:25;;;;;;;11.38;6.65;;;18.20;74.70;;;18.79;41.08;97594.13;5029042;28;20041;-74
2022/11/23 03:46:51;;;;;;;9.63;6.70;;;18.10;75.30;;;18.77;41.20;97599.94;5026247;28;20500;-74
2022/11/23 03:49:17;;;;;;;8.90;6.88;;;18.20;74.70;;;18.74;40.96;97592.41;5030222;28;20045;-74
2022/11/23 03:51:43;;;;;;;10.80;6.80;;;18.20;74.40;;;18.75;41.03;97587.69;5027322;28;20072;-75
2022/11/23 03:54:10;;;;;;;10.50;7.30;;;18.20;74.60;;;18.75;40.90;97590.44;5013176;28;20041;-75
2022/11/23 03:56:36;;;;;;;9.52;7.55;;;18.10;74.10;;;18.75;40.61;97593.19;5030364;28;20052;-74
2022/11/23 03:59:02;;;;;;;10.13;7.28;;;18.10;74.20;;;18.68;40.62;97596.59;5026338;28;20065;-74
2022/11/23 04:01:28;;;;;;;8.65;6.93;;;18.10;74.00;;;18.70;40.77;97602.53;5015186;28;20037;-75
2022/11/23 04:03:54;;;;;;;8.80;6.07;;;18.00;74.20;;;18.71;41.03;97604.09;5012625;28;20050;-74
2022/11/23 04:06:20;;;;;;;12.18;7.50;;;18.10;74.60;;;18.71;40.81;97598.63;5031127;28;20060;-75
2022/11/23 04:08:46;;;;;;;9.82;7.20;;;18.10;74.60;;;18.70;40.84;97598.97;5030449;28;20060;-75
2022/11/23 04:11:12;;;;;;;13.38;8.07;;;18.10;74.30;;;18.69;40.67;97602.88;5034176;28;20061;-74
2022/11/23 04:13:39;;;;;;;11.70;7.35;;;18.00;73.90;;;18.70;40.27;97599.78;5013347;28;20041;-74
2022/11/23 04:16:06;;;;;;;10.55;6.97;;;18.00;74.00;;;18.71;40.31;97603.31;5030013;28;20041;-74
2022/11/23 04:18:32;;;;;;;10.75;7.82;;;18.00;73.80;;;18.68;40.87;97599.34;5030075;28;20038;-75
2022/11/23 04:20:58;;;;;;;13.02;7.25;;;17.90;74.00;;;18.66;40.74;97590.66;5027283;28;20138;-75
2022/11/23 04:23:25;;;;;;;9.55;7.22;;;18.00;74.20;;;18.62;41.06;97601.56;5017075;28;20041;-75
2022/11/23 04:25:51;;;;;;;12.95;8.15;;;18.00;74.50;;;18.64;40.46;97598.44;5018308;28;20039;-75
2022/11/23 04:28:17;;;;;;;11.23;7.55;;;18.00;73.90;;;18.65;40.29;97594.56;5028163;28;20041;-74
2022/11/23 04:30:43;;;;;;;9.50;6.55;;;18.00;73.70;;;18.63;40.15;97602.34;5027460;28;20111;-74
2022/11/23 04:33:09;;;;;;;10.27;7.20;;;18.00;73.60;;;18.64;40.30;97598.44;5029282;28;20049;-76
2022/11/23 04:35:36;;;;;;;10.30;7.75;;;18.00;73.50;;;18.58;40.83;97592.44;5026706;28;20037;-75
2022/11/23 04:38:02;;;;;;;11.13;7.70;;;18.00;73.90;;;18.62;40.79;97598.00;5012034;28;20038;-75
2022/11/23 04:40:30;;;;;;;12.10;7.13;;;18.00;74.10;;;18.58;40.96;97592.44;5028041;28;20072;-75
2022/11/23 04:42:57;;;;;;;11.98;7.80;;;18.00;74.40;;;18.59;40.72;97593.22;5026551;28;20052;-75
2022/11/23 04:45:23;;;;;;;9.35;7.15;;;17.90;73.90;;;18.62;40.31;97595.25;5023948;28;20124;-76
2022/11/23 04:47:50;;;;;;;10.20;7.78;;;17.90;73.60;;;18.56;40.31;97599.44;5008338;28;20049;-76
2022/11/23 04:50:16;;;;;;;12.25;8.38;;;17.90;73.40;;;18.57;40.34;97604.56;5011210;28;20041;-76
2022/11/23 04:52:42;;;;;;;11.73;8.23;;;17.90;73.20;;;18.56;40.65;97599.44;4992760;28;20042;-76
2022/11/23 04:55:08;;;;;;;11.95;7.25;;;18.00;73.60;;;18.56;40.95;97593.94;5025414;28;20045;-76
2022/11/23 04:57:35;;;;;;;10.73;7.68;;;18.00;73.90;;;18.56;40.53;97591.19;5026763;28;20470;-76
2022/11/23 05:00:02;;;;;;;12.40;8.00;;;18.00;73.70;;;18.56;40.38;97588.44;5025029;28;20071;-75
2022/11/23 05:02:28;;;;;;;10.10;7.65;;;17.90;73.60;;;18.54;40.27;97591.53;5025323;28;20049;-75
2022/11/23 05:04:54;;;;;;;9.13;7.45;;;17.90;73.40;;;18.58;39.85;97586.16;5009393;28;20131;-75
2022/11/23 05:07:21;;;;;;;11.45;8.10;;;17.90;73.20;;;18.57;40.43;97595.53;5025347;28;20052;-75
2022/11/23 05:09:47;;;;;;;11.27;7.18;;;17.80;73.50;;;18.52;40.70;97595.78;5010348;28;20360;-76
2022/11/23 05:12:14;;;;;;;9.60;7.10;;;17.90;73.80;;;18.50;40.75;97582.44;5024543;28;20091;-76
2022/11/23 05:14:41;;;;;;;9.85;6.72;;;17.90;73.90;;;18.54;40.20;97588.00;5026566;28;20547;-75
2022/11/23 05:17:07;;;;;;;11.75;7.30;;;17.90;73.20;;;18.52;40.19;97582.88;5010055;28;20445;-75
2022/11/23 05:19:33;;;;;;;11.05;8.50;;;17.90;73.10;;;18.55;39.98;97582.16;5027266;28;20052;-75
2022/11/23 05:22:00;;;;;;;11.93;8.50;;;17.80;73.00;;;18.55;39.78;97581.38;5028282;28;20052;-76
2022/11/23 05:24:26;;;;;;;11.57;8.50;;;17.80;72.80;;;18.48;40.36;97573.75;5011809;28;20042;-76
2022/11/23 05:26:52;;;;;;;9.88;7.10;;;17.80;73.40;;;18.47;40.62;97588.63;5012102;28;20528;-75
2022/11/23 05:29:18;;;;;;;12.65;7.53;;;17.90;73.40;;;18.55;43.21;97573.94;5029641;28;20052;-77
2022/11/23 05:31:44;;;;;;;12.75;9.13;;;17.80;77.70;;;18.67;44.16;97589.47;5010106;28;20500;-77
2022/11/23 05:34:10;;;;;;;12.52;7.90;;;17.90;79.40;;;18.75;44.10;97585.81;5027684;28;20037;-76
2022/11/23 05:36:36;;;;;;;11.98;8.32;;;17.90;79.30;;;18.81;43.78;97595.34;5028823;28;20044;-76
2022/11/23 05:39:02;;;;;;;10.68;7.60;;;17.90;79.10;;;18.85;43.94;97607.22;5026646;28;20041;-77
2022/11/23 05:41:29;;;;;;;11.73;8.45;;;18.00;79.40;;;18.85;44.13;97600.91;4995527;28;20051;-77
2022/11/23 05:43:55;;;;;;;10.30;8.02;;;17.90;79.80;;;18.85;44.09;97604.47;5009873;28;20656;-77
2022/11/23 05:46:21;;;;;;;8.93;7.00;;;18.00;80.10;;;18.91;44.19;97617.94;5011838;28;20125;-76
2022/11/23 05:48:47;;;;;;;11.07;8.32;;;18.00;80.10;;;18.89;44.00;97615.53;5024312;28;20402;-76
2022/11/23 05:51:13;;;;;;;14.90;8.18;;;18.00;79.80;;;18.93;44.19;97621.09;5013962;28;20042;-78
2022/11/23 05:53:42;;;;;;;26.73;8.75;;;18.00;80.10;;;18.93;44.56;97621.94;5014634;28;20043;-78
2022/11/23 05:56:09;;;;;;;15.55;8.45;;;18.00;80.40;;;18.92;44.34;97614.81;5030411;28;20033;-77
2022/11/23 05:58:35;;;;;;;17.77;8.30;;;18.00;80.40;;;18.89;44.39;97615.53;5020666;28;20044;-78
2022/11/23 06:01:01;;;;;;;13.85;8.05;;;18.00;80.40;;;18.92;44.42;97631.31;5023582;28;20042;-77
2022/11/23 06:03:27;;;;;;;12.23;7.55;;;18.00;80.40;;;18.92;44.57;97625.03;5029890;28;20058;-78
2022/11/23 06:05:54;;;;;;;11.13;8.55;;;18.00;80.40;;;18.92;44.43;97622.28;5034393;28;20488;-78
2022/11/23 06:08:21;;;;;;;21.15;8.32;;;18.00;80.40;;;18.89;44.55;97626.53;5029970;28;20038;-78
2022/11/23 06:10:47;;;;;;;15.48;8.07;;;18.00;80.40;;;18.94;44.32;97633.72;5019636;28;20072;-78
2022/11/23 06:13:13;;;;;;;10.50;7.68;;;18.00;80.30;;;18.93;44.39;97637.59;5033508;28;20045;-77
2022/11/23 06:15:40;;;;;;;11.52;8.13;;;18.00;80.40;;;18.94;43.94;97641.94;5013485;28;20511;-78
2022/11/23 06:18:07;;;;;;;13.40;9.48;;;18.00;80.40;;;18.96;44.17;97643.19;5012510;28;20559;-78
2022/11/23 06:20:33;;;;;;;15.82;8.10;;;18.10;80.30;;;18.95;44.31;97644.31;5032547;28;20037;-78
2022/11/23 06:22:59;;;;;;;10.57;7.88;;;18.10;80.30;;;18.98;44.33;97649.13;5016626;28;20076;-77
2022/11/23 06:25:26;;;;;;;10.15;7.00;;;18.10;80.20;;;19.00;44.14;97655.03;5028883;28;20073;-78
2022/11/23 06:27:56;;;;;;;12.25;7.32;;;18.10;80.30;;;19.00;44.09;97660.53;5011644;28;20052;-78
2022/11/23 06:30:23;;;;;;;10.57;7.13;;;18.10;80.20;;;18.98;43.92;97651.06;5029420;28;20052;-78
2022/11/23 06:32:49;;;;;;;13.82;8.48;;;18.10;80.20;;;19.02;44.05;97658.25;5033084;28;20045;-79
2022/11/23 06:35:15;;;;;;;10.75;7.03;;;18.10;80.10;;;18.97;44.06;97654.97;5002037;28;20057;-79
2022/11/23 06:37:42;;;;;;;12.75;7.80;;;18.00;80.20;;;18.99;44.06;97653.47;5029384;28;20118;-79
2022/11/23 06:40:10;;;;;;;11.27;8.10;;;18.10;80.10;;;19.03;43.84;97659.84;5012933;28;20037;-79
2022/11/23 06:42:36;;;;;;;11.93;7.50;;;18.10;80.00;;;19.00;44.15;97652.31;5026122;28;20139;-79
2022/11/23 06:45:03;;;;;;;16.58;8.98;;;18.10;80.00;;;19.04;44.23;97655.16;5026697;28;20503;-78
2022/11/23 06:47:29;;;;;;;11.95;8.90;;;18.10;79.90;;;19.04;43.97;97652.41;4997082;28;20045;-79
2022/11/23 06:49:56;;;;;;;9.88;7.65;;;18.10;79.80;;;19.02;43.92;97658.25;5012970;28;20452;-79
2022/11/23 06:52:22;;;;;;;12.55;7.43;;;18.10;79.80;;;19.02;43.92;97657.44;5027545;28;20037;-78
2022/11/23 06:54:48;;;;;;;12.05;7.63;;;18.10;79.60;;;19.05;43.97;97664.97;5011225;28;20060;-79
2022/11/23 06:57:15;;;;;;;10.07;7.03;;;18.10;79.60;;;19.07;43.89;97665.41;5010604;28;20045;-79
2022/11/23 06:59:43;;;;;;;17.23;8.15;;;18.10;79.50;;;19.06;43.77;97678.38;5014407;28;20443;-78
2022/11/23 07:02:08;;;;;;;11.30;7.30;;;18.10;79.50;;;19.09;43.83;97676.84;4995915;28;20045;-79
2022/11/23 07:04:35;;;;;;;10.43;8.60;;;18.20;79.70;;;19.10;43.53;97675.69;4987997;28;1124322;-78
2022/11/23 07:07:01;;;;;;;9.30;6.97;;;18.20;79.60;;;19.06;43.68;97678.38;5030994;28;20068;-78
2022/11/23 07:09:28;;;;;;;11.07;6.95;;;18.10;79.60;;;19.05;43.64;97665.75;5030912;28;20077;-78
2022/11/23 07:11:54;;;;;;;11.52;6.93;;;18.10;79.70;;;19.05;43.47;97667.72;5031481;28;20044;-78
2022/11/23 07:14:20;;;;;;;11.30;8.07;;;18.10;79.50;;;19.08;43.91;97675.25;5026937;28;20072;-79
2022/11/23 07:16:46;;;;;;;8.85;6.93;;;18.10;79.60;;;19.08;43.76;97680.75;5044262;28;20041;-79
2022/11/23 07:19:12;;;;;;;10.98;7.50;;;18.10;79.50;;;19.11;43.59;97671.81;5029159;28;20512;-79
2022/11/23 07:21:39;;;;;;;12.35;7.97;;;18.20;79.50;;;19.12;44.11;97681.63;5028709;28;20045;-79
2022/11/23 07:24:05;;;;;;;9.35;6.70;;;18.20;79.50;;;19.16;43.45;97681.72;5011716;28;20049;-78
2022/11/23 07:26:31;;;;;;;12.43;7.53;;;18.20;79.60;;;19.16;43.45;97679.78;5012742;28;20048;-79
2022/11/23 07:28:57;;;;;;;10.63;6.75;;;18.20;79.50;;;19.14;43.65;97681.28;5011424;28;20489;-78
2022/11/23 07:31:23;;;;;;;10.88;7.95;;;18.10;79.50;;;19.14;43.65;97689.53;5009214;28;20067;-79
2022/11/23 07:33:50;;;;;;;10.20;7.65;;;18.20;79.60;;;19.13;43.65;97683.22;5028804;28;20437;-78
2022/11/23 07:36:16;;;;;;;11.23;7.35;;;18.20;79.50;;;19.12;43.63;97673.38;5029117;28;20628;-78
2022/11/23 07:38:43;;;;;;;15.02;7.97;;;18.20;79.60;;;19.13;43.71;97669.47;5016393;28;20548;-78
2022/11/23 07:41:09;;;;;;;11.95;6.82;;;18.10;79.50;;;19.09;43.69;97669.41;5013776;28;20053;-78
2022/11/23 07:43:35;;;;;;;9.23;6.80;;;18.20;79.60;;;19.08;43.54;97667.81;4998317;28;20046;-78
2022/11/23 07:46:01;;;;;;;11.88;7.47;;;18.10;79.50;;;19.12;43.53;97667.91;5011047;28;20051;-79
2022/11/23 07:48:28;;;;;;;10.23;6.63;;;18.10;79.50;;;19.12;43.66;97667.91;5015631;28;20552;-78
2022/11/23 07:50:54;;;;;;;14.15;7.57;;;18.20;79.60;;;19.16;43.65;97668.78;5028679;28;20052;-78
2022/11/23 07:53:22;;;;;;;9.32;7.07;;;18.20;79.40;;;19.12;43.57;97662.41;5008744;28;20083;-78
2022/11/23 07:55:48;;;;;;;10.35;6.97;;;18.10;79.40;;;19.17;43.77;97653.88;5028198;28;20128;-78
2022/11/23 07:58:14;;;;;;;10.07;6.80;;;18.20;79.50;;;19.17;43.31;97659.38;5029792;28;20435;-79
2022/11/23 08:00:40;;;;;;;10.10;6.75;;;18.20;79.50;;;19.15;43.50;97658.13;5031263;28;20041;-78
2022/11/23 08:03:10;;;;;;;8.80;6.75;;;18.10;79.50;;;19.20;43.54;97646.84;5028934;28;20042;-79
2022/11/23 08:05:36;;;;;;;8.73;6.45;;;18.10;79.60;;;19.22;43.36;97659.09;5028557;28;20132;-78
2022/11/23 08:08:02;;;;;;;9.00;6.35;;;18.20;79.60;;;19.24;43.30;97656.78;5012941;28;20519;-78
2022/11/23 08:10:29;;;;;;;11.50;7.50;;;18.20;79.30;;;19.23;43.35;97660.72;5030739;28;20551;-78
2022/11/23 08:13:01;;;;;;;9.18;6.68;;;18.20;79.30;;;19.21;43.59;97664.94;5030317;28;20094;-78
2022/11/23 08:15:29;;;;;;;8.47;6.60;;;18.20;79.20;;;19.23;43.55;97659.88;5028615;28;20099;-78
2022/11/23 08:17:57;;;;;;;9.13;6.80;;;18.20;79.30;;;19.24;43.45;97662.28;5029828;28;20071;-78
2022/11/23 08:20:23;;;;;;;7.78;5.93;;;18.30;79.20;;;19.23;43.42;97657.97;5027311;28;20038;-78
2022/11/23 08:22:49;;;;;;;9.88;6.68;;;18.30;79.20;;;19.26;43.39;97654.47;5011384;28;20053;-78
2022/11/23 08:25:15;;;;;;;8.45;6.57;;;18.30;79.20;;;19.24;43.48;97654.03;5029593;28;20365;-78
2022/11/23 08:27:42;;;;;;;7.88;6.75;;;18.30;79.20;;;19.20;43.54;97655.91;5009805;28;20407;-78
2022/11/23 08:30:09;;;;;;;10.00;6.53;;;18.30;79.30;;;19.21;43.50;97649.25;5010313;28;20048;-78
2022/11/23 08:32:35;;;;;;;10.05;6.72;;;18.20;79.40;;;19.23;43.69;97657.13;4996816;28;20398;-78
2022/11/23 08:35:01;;;;;;;9.15;6.55;;;18.30;79.60;;;19.25;43.29;97663.06;5029051;28;20072;-78
2022/11/23 08:37:27;;;;;;;7.00;6.28;;;18.20;79.50;;;19.22;43.50;97666.53;5027292;28;20042;-78
2022/11/23 08:39:54;;;;;;;11.00;6.82;;;18.30;79.30;;;19.28;43.45;97662.34;5015891;28;20451;-78
2022/11/23 08:42:23;;;;;;;7.65;6.00;;;18.30;79.20;;;19.30;43.31;97662.78;5011827;28;20092;-78
2022/11/23 08:44:49;;;;;;;8.05;5.53;;;18.30;79.10;;;19.27;43.16;97669.81;5013057;28;20440;-78
2022/11/23 08:47:16;;;;;;;8.73;6.60;;;18.30;79.20;;;19.28;43.44;97676.91;5034394;28;20041;-78
2022/11/23 08:49:42;;;;;;;11.70;6.25;;;18.30;79.30;;;19.31;43.24;97667.16;5045156;28;20051;-78
2022/11/23 08:52:08;;;;;;;9.65;6.60;;;18.30;79.20;;;19.33;43.17;97672.28;5028441;28;20481;-78
2022/11/23 08:54:34;;;;;;;7.90;6.03;;;18.30;79.20;;;19.28;43.50;97670.59;5011744;28;20056;-78
2022/11/23 08:57:03;;;;;;;8.32;6.25;;;18.30;79.20;;;19.32;43.30;97676.19;5026835;28;20045;-78
2022/11/23 08:59:29;;;;;;;9.00;6.07;;;18.30;79.20;;;19.30;43.18;97680.09;4996768;28;20504;-78
2022/11/23 09:01:56;;;;;;;7.78;5.65;;;18.30;79.10;;;19.35;43.27;97689.22;4996615;28;20600;-78
2022/11/23 09:04:22;;;;;;;9.48;6.32;;;18.30;79.20;;;19.34;43.07;97671.16;5027859;28;20354;-78
2022/11/23 09:06:48;;;;;;;9.15;6.43;;;18.40;79.20;;;19.34;43.39;97679.38;4995221;28;20044;-78
2022/11/23 09:09:14;;;;;;;7.28;5.40;;;18.40;79.20;;;19.39;43.15;97676.38;5028825;28;20401;-78
2022/11/23 09:11:41;;;;;;;7.50;5.55;;;18.40;79.10;;;19.40;43.01;97672.44;5025125;28;20096;-78
2022/11/23 09:14:07;;;;;;;7.80;6.10;;;18.40;78.90;;;19.37;43.10;97673.97;5012089;28;20045;-78
2022/11/23 09:16:33;;;;;;;7.75;6.53;;;18.40;79.00;;;19.37;43.18;97668.47;4991703;28;20042;-78
2022/11/23 09:18:59;;;;;;;6.43;5.82;;;18.40;78.90;;;19.40;43.03;97673.22;5027677;28;20656;-78
2022/11/23 09:21:29;;;;;;;11.48;5.90;;;18.50;79.00;;;19.38;43.03;97674.75;5026896;28;20041;-78
2022/11/23 09:23:56;;;;;;;9.18;6.95;;;18.40;78.90;;;19.40;43.19;97669.69;5013519;28;20047;-78
2022/11/23 09:26:22;;;;;;;6.80;5.28;;;18.40;78.90;;;19.41;43.23;97665.78;5027076;28;20509;-78
2022/11/23 09:28:48;;;;;;;7.25;5.70;;;18.40;78.90;;;19.43;43.13;97667.00;5011936;28;20055;-78
2022/11/23 09:31:14;;;;;;;5.88;4.50;;;18.50;78.80;;;19.36;43.28;97663.31;5027456;28;20057;-78
2022/11/23 09:33:40;;;;;;;6.30;5.15;;;18.50;78.70;;;19.34;43.31;97658.19;5028887;28;20051;-78
2022/11/23 09:36:07;;;;;;;7.75;5.97;;;18.40;78.80;;;19.38;43.26;97661.78;5029025;28;20060;-78
2022/11/23 09:38:33;;;;;;;6.85;5.45;;;18.40;78.90;;;19.41;42.98;97657.53;5007350;28;20048;-78
2022/11/23 09:41:22;;;;;;;9.95;5.78;;;18.40;78.80;;;19.43;42.96;97649.72;5011465;28;20046;-78
2022/11/23 09:44:37;;;;;;;8.63;6.13;;;18.50;78.70;;;19.41;43.07;97652.03;5030072;28;20270;-78
2022/11/23 09:47:38;;;;;;;7.75;6.30;;;18.50;78.90;;;19.42;43.08;97640.69;5036179;28;20131;-78
2022/11/23 09:50:07;;;;;;;6.80;5.85;;;18.40;78.80;;;19.38;43.13;97642.53;5042511;28;20091;-78
2022/11/23 09:52:38;;;;;;;5.28;4.68;;;18.40;79.00;;;19.37;42.93;97634.66;5029886;28;20045;-78
2022/11/23 09:55:33;;;;;;;7.40;5.63;;;18.40;78.90;;;19.37;42.96;97635.47;5010091;28;20441;-78
2022/11/23 09:58:04;;;;;;;7.28;4.57;;;18.40;79.50;;;19.37;43.10;97634.66;5013504;28;20053;-78
2022/11/23 10:00:42;;;;;;;7.05;5.65;;;18.40;78.80;;;19.38;43.09;97623.28;5006913;28;20053;-78
2022/11/23 10:03:14;;;;;;;7.35;5.60;;;18.40;78.80;;;19.38;43.10;97619.75;5028020;28;20090;-78
2022/11/23 10:05:40;;;;;;;8.02;5.80;;;18.40;78.80;;;19.40;42.98;97614.69;5015120;28;20467;-78
2022/11/23 10:08:39;;;;;;;6.50;5.55;;;18.40;78.70;;;19.39;42.93;97618.63;5028202;28;20050;-78
2022/11/23 10:11:41;;;;;;;7.20;5.65;;;18.40;78.90;;;19.37;42.96;97620.94;5015884;28;20128;-78
2022/11/23 10:14:38;;;;;;;7.68;5.75;;;18.40;78.90;;;19.44;42.94;97618.34;5026155;28;20045;-78
2022/11/23 10:17:36;;;;;;;9.07;6.05;;;18.50;78.90;;;19.41;42.95;97614.34;5042731;28;20481;-78
2022/11/23 10:20:49;;;;;;;7.32;5.85;;;18.40;78.70;;;19.40;43.05;97618.25;5025733;28;20051;-78